sensor_id;sensor_type;location;lat;lon;timestamp;noise_LAeq;noise_LA_min;noise_LA_max;noise_LA01;noise_LA95
66399;Laerm;54877;51.504;3.894;2023-05-02T00:00:46;35.66;34.41;36.84;;
66399;Laerm;54877;51.504;3.894;2023-05-02T00:03:12;35.64;34.30;36.83;;
66399;Laerm;54877;51.504;3.894;2023-05-02T00:05:37;35.64;34.35;37.00;;
66399;Laerm;54877;51.504;3.894;2023-05-02T00:08:02;35.64;34.37;36.91;;
66399;Laerm;54877;51.504;3.894;2023-05-02T00:10:28;35.63;34.27;36.88;;
66399;Laerm;54877;51.504;3.894;2023-05-02T00:12:53;35.63;34.39;36.80;;
66399;Laerm;54877;51.504;3.894;2023-05-02T00:15:18;35.64;34.37;36.98;;
66399;Laerm;54877;51.504;3.894;2023-05-02T00:17:44;35.64;34.31;37.25;;
66399;Laerm;54877;51.504;3.894;2023-05-02T00:20:10;35.64;34.37;36.95;;
66399;Laerm;54877;51.504;3.894;2023-05-02T00:22:36;35.64;34.30;36.94;;
66399;Laerm;54877;51.504;3.894;2023-05-02T00:25:01;35.64;34.27;36.82;;
66399;Laerm;54877;51.504;3.894;2023-05-02T00:27:29;35.64;34.31;36.88;;
66399;Laerm;54877;51.504;3.894;2023-05-02T00:29:54;35.66;34.10;36.92;;
66399;Laerm;54877;51.504;3.894;2023-05-02T00:32:20;35.67;34.21;36.89;;
66399;Laerm;54877;51.504;3.894;2023-05-02T00:34:45;35.66;34.42;37.05;;
66399;Laerm;54877;51.504;3.894;2023-05-02T00:37:10;35.67;34.26;36.90;;
66399;Laerm;54877;51.504;3.894;2023-05-02T00:39:37;35.66;34.19;36.90;;
66399;Laerm;54877;51.504;3.894;2023-05-02T00:42:02;35.67;34.37;37.01;;
66399;Laerm;54877;51.504;3.894;2023-05-02T00:44:28;35.67;34.28;36.92;;
66399;Laerm;54877;51.504;3.894;2023-05-02T00:46:55;35.68;34.16;37.02;;
66399;Laerm;54877;51.504;3.894;2023-05-02T00:49:20;35.69;34.47;37.01;;
66399;Laerm;54877;51.504;3.894;2023-05-02T00:51:46;35.68;34.32;36.87;;
66399;Laerm;54877;51.504;3.894;2023-05-02T00:54:12;35.70;34.34;37.01;;
66399;Laerm;54877;51.504;3.894;2023-05-02T00:56:37;35.70;34.44;36.99;;
66399;Laerm;54877;51.504;3.894;2023-05-02T00:59:03;35.69;34.22;36.99;;
66399;Laerm;54877;51.504;3.894;2023-05-02T01:09:45;35.68;34.26;37.07;;
66399;Laerm;54877;51.504;3.894;2023-05-02T01:12:31;35.67;34.14;37.05;;
66399;Laerm;54877;51.504;3.894;2023-05-02T01:15:01;35.66;34.33;36.92;;
66399;Laerm;54877;51.504;3.894;2023-05-02T01:17:31;35.67;34.38;37.06;;
66399;Laerm;54877;51.504;3.894;2023-05-02T01:20:02;35.66;34.37;36.94;;
66399;Laerm;54877;51.504;3.894;2023-05-02T01:22:30;35.65;34.04;36.98;;
66399;Laerm;54877;51.504;3.894;2023-05-02T01:25:19;35.63;34.26;37.01;;
66399;Laerm;54877;51.504;3.894;2023-05-02T01:28:08;35.63;34.34;37.19;;
66399;Laerm;54877;51.504;3.894;2023-05-02T01:30:37;35.63;34.16;37.07;;
66399;Laerm;54877;51.504;3.894;2023-05-02T01:33:08;35.63;34.20;36.87;;
66399;Laerm;54877;51.504;3.894;2023-05-02T01:35:35;35.64;34.23;37.14;;
66399;Laerm;54877;51.504;3.894;2023-05-02T01:38:02;35.63;34.17;36.96;;
66399;Laerm;54877;51.504;3.894;2023-05-02T01:40:28;35.64;34.20;37.52;;
66399;Laerm;54877;51.504;3.894;2023-05-02T01:42:56;35.62;34.29;36.82;;
66399;Laerm;54877;51.504;3.894;2023-05-02T01:45:22;35.61;34.32;36.97;;
66399;Laerm;54877;51.504;3.894;2023-05-02T01:47:48;35.57;34.12;37.71;;
66399;Laerm;54877;51.504;3.894;2023-05-02T01:50:18;35.53;34.10;36.79;;
66399;Laerm;54877;51.504;3.894;2023-05-02T01:52:46;35.52;34.13;36.83;;
66399;Laerm;54877;51.504;3.894;2023-05-02T01:55:14;35.49;34.19;36.93;;
66399;Laerm;54877;51.504;3.894;2023-05-02T01:57:43;35.44;33.94;36.86;;
66399;Laerm;54877;51.504;3.894;2023-05-02T02:00:09;35.42;33.92;36.77;;
66399;Laerm;54877;51.504;3.894;2023-05-02T02:02:36;35.57;34.06;39.00;;
66399;Laerm;54877;51.504;3.894;2023-05-02T02:05:04;35.41;34.11;36.67;;
66399;Laerm;54877;51.504;3.894;2023-05-02T02:07:30;35.39;34.02;36.49;;
66399;Laerm;54877;51.504;3.894;2023-05-02T02:09:56;35.39;33.91;36.64;;
66399;Laerm;54877;51.504;3.894;2023-05-02T02:14:50;35.40;33.91;36.89;;
66399;Laerm;54877;51.504;3.894;2023-05-02T02:17:26;35.39;33.97;36.65;;
66399;Laerm;54877;51.504;3.894;2023-05-02T02:19:55;35.38;33.93;36.54;;
66399;Laerm;54877;51.504;3.894;2023-05-02T02:22:23;35.37;33.83;36.55;;
66399;Laerm;54877;51.504;3.894;2023-05-02T02:24:51;35.38;33.96;36.73;;
66399;Laerm;54877;51.504;3.894;2023-05-02T02:27:17;35.39;33.85;36.73;;
66399;Laerm;54877;51.504;3.894;2023-05-02T02:29:43;35.38;34.04;36.70;;
66399;Laerm;54877;51.504;3.894;2023-05-02T02:32:08;35.38;33.97;36.67;;
66399;Laerm;54877;51.504;3.894;2023-05-02T02:34:34;35.39;33.82;36.51;;
66399;Laerm;54877;51.504;3.894;2023-05-02T02:37:18;35.38;34.06;36.66;;
66399;Laerm;54877;51.504;3.894;2023-05-02T02:40:12;35.38;33.92;36.67;;
66399;Laerm;54877;51.504;3.894;2023-05-02T02:43:02;35.39;33.87;42.87;;
66399;Laerm;54877;51.504;3.894;2023-05-02T02:53:33;35.32;34.05;36.62;;
66399;Laerm;54877;51.504;3.894;2023-05-02T02:56:04;35.32;34.00;42.27;;
66399;Laerm;54877;51.504;3.894;2023-05-02T03:01:04;35.72;33.94;47.04;;
66399;Laerm;54877;51.504;3.894;2023-05-02T03:03:31;36.70;33.94;52.15;;
66399;Laerm;54877;51.504;3.894;2023-05-02T03:05:58;36.84;33.82;52.36;;
66399;Laerm;54877;51.504;3.894;2023-05-02T03:08:24;37.46;34.01;51.68;;
66399;Laerm;54877;51.504;3.894;2023-05-02T03:10:50;37.60;33.82;53.46;;
66399;Laerm;54877;51.504;3.894;2023-05-02T03:13:15;37.48;33.99;52.12;;
66399;Laerm;54877;51.504;3.894;2023-05-02T03:18:18;38.22;34.01;52.06;;
66399;Laerm;54877;51.504;3.894;2023-05-02T03:20:44;38.54;34.00;53.39;;
66399;Laerm;54877;51.504;3.894;2023-05-02T03:23:09;39.07;34.64;53.52;;
66399;Laerm;54877;51.504;3.894;2023-05-02T03:25:35;38.59;34.09;54.57;;
66399;Laerm;54877;51.504;3.894;2023-05-02T03:28:01;38.83;33.89;53.46;;
66399;Laerm;54877;51.504;3.894;2023-05-02T03:30:26;35.97;33.99;48.29;;
66399;Laerm;54877;51.504;3.894;2023-05-02T03:32:52;38.75;33.87;52.65;;
66399;Laerm;54877;51.504;3.894;2023-05-02T03:35:17;36.23;33.92;49.04;;
66399;Laerm;54877;51.504;3.894;2023-05-02T03:37:43;36.60;34.19;41.85;;
66399;Laerm;54877;51.504;3.894;2023-05-02T03:40:09;36.00;34.06;41.01;;
66399;Laerm;54877;51.504;3.894;2023-05-02T03:42:35;35.88;33.82;44.75;;
66399;Laerm;54877;51.504;3.894;2023-05-02T03:45:05;35.54;34.04;43.01;;
66399;Laerm;54877;51.504;3.894;2023-05-02T03:47:30;35.61;33.79;47.53;;
66399;Laerm;54877;51.504;3.894;2023-05-02T03:49:55;35.36;33.78;40.22;;
66399;Laerm;54877;51.504;3.894;2023-05-02T03:52:21;36.17;33.75;49.97;;
66399;Laerm;54877;51.504;3.894;2023-05-02T03:54:47;37.15;33.68;56.12;;
66399;Laerm;54877;51.504;3.894;2023-05-02T03:57:12;37.68;33.57;52.95;;
66399;Laerm;54877;51.504;3.894;2023-05-02T03:59:38;35.22;33.76;40.05;;
66399;Laerm;54877;51.504;3.894;2023-05-02T04:02:05;35.33;33.74;42.26;;
66399;Laerm;54877;51.504;3.894;2023-05-02T04:04:31;35.12;33.55;37.76;;
66399;Laerm;54877;51.504;3.894;2023-05-02T04:06:56;35.06;33.64;37.57;;
66399;Laerm;54877;51.504;3.894;2023-05-02T04:09:22;34.95;33.38;38.73;;
66399;Laerm;54877;51.504;3.894;2023-05-02T04:11:49;34.99;33.57;37.77;;
66399;Laerm;54877;51.504;3.894;2023-05-02T04:14:14;34.95;33.41;36.88;;
66399;Laerm;54877;51.504;3.894;2023-05-02T04:16:40;35.00;33.39;39.40;;
66399;Laerm;54877;51.504;3.894;2023-05-02T04:19:05;34.97;33.03;38.46;;
66399;Laerm;54877;51.504;3.894;2023-05-02T04:21:30;35.29;33.47;41.93;;
66399;Laerm;54877;51.504;3.894;2023-05-02T04:23:56;35.01;33.31;40.26;;
66399;Laerm;54877;51.504;3.894;2023-05-02T04:26:21;35.06;33.41;40.21;;
66399;Laerm;54877;51.504;3.894;2023-05-02T04:28:46;43.03;33.16;61.87;;
66399;Laerm;54877;51.504;3.894;2023-05-02T04:31:12;35.10;33.40;42.22;;
66399;Laerm;54877;51.504;3.894;2023-05-02T04:33:37;34.96;33.18;40.31;;
66399;Laerm;54877;51.504;3.894;2023-05-02T04:36:02;39.99;33.17;59.83;;
66399;Laerm;54877;51.504;3.894;2023-05-02T04:38:28;34.95;33.23;40.39;;
66399;Laerm;54877;51.504;3.894;2023-05-02T04:40:53;35.08;33.30;41.01;;
66399;Laerm;54877;51.504;3.894;2023-05-02T04:43:19;34.97;33.19;47.14;;
66399;Laerm;54877;51.504;3.894;2023-05-02T04:45:44;35.02;33.06;46.41;;
66399;Laerm;54877;51.504;3.894;2023-05-02T04:48:10;35.14;33.28;42.59;;
66399;Laerm;54877;51.504;3.894;2023-05-02T04:50:36;41.87;33.39;59.89;;
66399;Laerm;54877;51.504;3.894;2023-05-02T04:53:01;35.47;33.11;45.38;;
66399;Laerm;54877;51.504;3.894;2023-05-02T04:55:26;42.41;33.18;59.09;;
66399;Laerm;54877;51.504;3.894;2023-05-02T04:57:52;36.23;33.06;59.77;;
66399;Laerm;54877;51.504;3.894;2023-05-02T05:00:17;36.00;33.32;52.02;;
66399;Laerm;54877;51.504;3.894;2023-05-02T05:02:43;34.76;33.24;41.87;;
66399;Laerm;54877;51.504;3.894;2023-05-02T05:05:08;34.93;33.28;44.91;;
66399;Laerm;54877;51.504;3.894;2023-05-02T05:07:33;35.37;33.07;45.56;;
66399;Laerm;54877;51.504;3.894;2023-05-02T05:09:59;43.70;33.20;62.30;;
66399;Laerm;54877;51.504;3.894;2023-05-02T05:12:24;35.38;33.29;44.23;;
66399;Laerm;54877;51.504;3.894;2023-05-02T05:14:49;40.92;32.99;51.76;;
66399;Laerm;54877;51.504;3.894;2023-05-02T05:17:15;45.40;33.21;61.80;;
66399;Laerm;54877;51.504;3.894;2023-05-02T05:19:41;46.94;33.22;65.80;;
66399;Laerm;54877;51.504;3.894;2023-05-02T05:22:06;37.07;33.19;57.62;;
66399;Laerm;54877;51.504;3.894;2023-05-02T05:24:32;41.71;33.37;60.40;;
66399;Laerm;54877;51.504;3.894;2023-05-02T05:26:57;34.95;32.99;47.43;;
66399;Laerm;54877;51.504;3.894;2023-05-02T05:29:23;35.68;32.94;47.19;;
66399;Laerm;54877;51.504;3.894;2023-05-02T05:31:48;35.56;33.04;57.78;;
66399;Laerm;54877;51.504;3.894;2023-05-02T05:34:13;36.60;32.90;64.89;;
66399;Laerm;54877;51.504;3.894;2023-05-02T05:36:39;46.89;33.36;65.32;;
66399;Laerm;54877;51.504;3.894;2023-05-02T05:39:05;34.79;33.07;41.24;;
66399;Laerm;54877;51.504;3.894;2023-05-02T05:41:30;43.66;33.15;61.45;;
66399;Laerm;54877;51.504;3.894;2023-05-02T05:43:57;49.09;33.03;73.36;;
66399;Laerm;54877;51.504;3.894;2023-05-02T05:46:22;43.07;32.94;62.08;;
66399;Laerm;54877;51.504;3.894;2023-05-02T05:48:48;45.13;33.10;65.75;;
66399;Laerm;54877;51.504;3.894;2023-05-02T05:51:13;46.06;32.88;64.27;;
66399;Laerm;54877;51.504;3.894;2023-05-02T05:53:38;39.95;33.26;55.88;;
66399;Laerm;54877;51.504;3.894;2023-05-02T05:56:08;39.49;32.71;55.99;;
66399;Laerm;54877;51.504;3.894;2023-05-02T05:58:33;34.77;32.87;42.91;;
66399;Laerm;54877;51.504;3.894;2023-05-02T06:00:59;37.43;33.11;67.63;;
66399;Laerm;54877;51.504;3.894;2023-05-02T06:03:24;35.37;32.92;46.12;;
66399;Laerm;54877;51.504;3.894;2023-05-02T06:05:50;35.21;32.78;50.30;;
66399;Laerm;54877;51.504;3.894;2023-05-02T06:08:15;44.44;33.05;63.33;;
66399;Laerm;54877;51.504;3.894;2023-05-02T06:10:40;48.75;33.27;66.03;;
66399;Laerm;54877;51.504;3.894;2023-05-02T06:13:06;35.02;33.00;49.38;;
66399;Laerm;54877;51.504;3.894;2023-05-02T06:15:34;44.68;33.28;65.06;;
66399;Laerm;54877;51.504;3.894;2023-05-02T06:17:59;34.97;32.95;43.61;;
66399;Laerm;54877;51.504;3.894;2023-05-02T06:20:25;35.45;33.01;52.11;;
66399;Laerm;54877;51.504;3.894;2023-05-02T06:22:50;43.41;33.27;62.16;;
66399;Laerm;54877;51.504;3.894;2023-05-02T06:25:16;44.77;33.37;61.67;;
66399;Laerm;54877;51.504;3.894;2023-05-02T06:27:41;37.19;33.67;52.39;;
66399;Laerm;54877;51.504;3.894;2023-05-02T06:30:07;36.44;33.60;48.06;;
66399;Laerm;54877;51.504;3.894;2023-05-02T06:32:32;37.10;33.30;51.62;;
66399;Laerm;54877;51.504;3.894;2023-05-02T06:34:58;36.72;33.45;48.36;;
66399;Laerm;54877;51.504;3.894;2023-05-02T06:37:24;40.76;33.85;59.35;;
66399;Laerm;54877;51.504;3.894;2023-05-02T06:39:49;39.92;33.46;56.75;;
66399;Laerm;54877;51.504;3.894;2023-05-02T06:42:15;36.49;33.33;48.03;;
66399;Laerm;54877;51.504;3.894;2023-05-02T06:44:40;45.18;33.62;69.45;;
66399;Laerm;54877;51.504;3.894;2023-05-02T06:47:05;41.52;33.50;60.09;;
66399;Laerm;54877;51.504;3.894;2023-05-02T06:49:31;39.95;33.39;59.05;;
66399;Laerm;54877;51.504;3.894;2023-05-02T06:51:56;40.79;33.30;63.70;;
66399;Laerm;54877;51.504;3.894;2023-05-02T06:54:22;45.43;33.46;64.87;;
66399;Laerm;54877;51.504;3.894;2023-05-02T06:56:47;41.07;33.62;59.38;;
66399;Laerm;54877;51.504;3.894;2023-05-02T06:59:13;43.93;33.52;64.24;;
66399;Laerm;54877;51.504;3.894;2023-05-02T07:01:40;41.37;33.41;62.56;;
66399;Laerm;54877;51.504;3.894;2023-05-02T07:04:06;37.65;33.27;54.95;;
66399;Laerm;54877;51.504;3.894;2023-05-02T07:06:31;38.36;33.63;62.77;;
66399;Laerm;54877;51.504;3.894;2023-05-02T07:08:57;44.37;33.52;63.28;;
66399;Laerm;54877;51.504;3.894;2023-05-02T07:11:23;35.60;33.44;49.19;;
66399;Laerm;54877;51.504;3.894;2023-05-02T07:13:49;35.60;33.65;44.64;;
66399;Laerm;54877;51.504;3.894;2023-05-02T07:16:14;42.90;33.49;56.42;;
66399;Laerm;54877;51.504;3.894;2023-05-02T07:18:40;44.10;33.82;60.10;;
66399;Laerm;54877;51.504;3.894;2023-05-02T07:21:06;44.11;33.85;64.01;;
66399;Laerm;54877;51.504;3.894;2023-05-02T07:23:32;37.48;33.74;51.26;;
66399;Laerm;54877;51.504;3.894;2023-05-02T07:25:58;46.77;34.06;60.89;;
66399;Laerm;54877;51.504;3.894;2023-05-02T07:28:23;59.56;35.26;77.53;;
66399;Laerm;54877;51.504;3.894;2023-05-02T07:30:48;38.99;34.30;48.81;;
66399;Laerm;54877;51.504;3.894;2023-05-02T07:33:14;46.16;34.24;53.21;;
66399;Laerm;54877;51.504;3.894;2023-05-02T07:35:39;40.29;33.61;50.17;;
66399;Laerm;54877;51.504;3.894;2023-05-02T07:38:05;46.85;33.74;65.74;;
66399;Laerm;54877;51.504;3.894;2023-05-02T07:40:31;41.28;33.92;58.67;;
66399;Laerm;54877;51.504;3.894;2023-05-02T07:43:02;42.31;33.83;58.44;;
66399;Laerm;54877;51.504;3.894;2023-05-02T07:45:27;37.03;33.82;49.78;;
66399;Laerm;54877;51.504;3.894;2023-05-02T07:47:53;43.40;33.68;61.81;;
66399;Laerm;54877;51.504;3.894;2023-05-02T07:50:18;42.38;33.95;60.47;;
66399;Laerm;54877;51.504;3.894;2023-05-02T07:52:43;41.50;33.97;60.57;;
66399;Laerm;54877;51.504;3.894;2023-05-02T07:55:09;37.49;33.75;46.36;;
66399;Laerm;54877;51.504;3.894;2023-05-02T07:57:34;35.67;33.88;50.92;;
66399;Laerm;54877;51.504;3.894;2023-05-02T08:00:00;40.82;33.97;56.56;;
66399;Laerm;54877;51.504;3.894;2023-05-02T08:02:25;44.93;33.65;61.42;;
66399;Laerm;54877;51.504;3.894;2023-05-02T08:04:51;41.57;33.82;58.53;;
66399;Laerm;54877;51.504;3.894;2023-05-02T08:07:16;39.21;33.92;65.10;;
66399;Laerm;54877;51.504;3.894;2023-05-02T08:09:42;44.46;33.95;63.39;;
66399;Laerm;54877;51.504;3.894;2023-05-02T08:12:07;40.15;33.75;55.92;;
66399;Laerm;54877;51.504;3.894;2023-05-02T08:14:33;39.52;33.69;55.44;;
66399;Laerm;54877;51.504;3.894;2023-05-02T08:16:59;42.29;34.09;55.11;;
66399;Laerm;54877;51.504;3.894;2023-05-02T08:19:24;46.20;34.33;61.07;;
66399;Laerm;54877;51.504;3.894;2023-05-02T08:21:50;36.95;33.87;63.74;;
66399;Laerm;54877;51.504;3.894;2023-05-02T08:24:15;44.20;33.96;62.63;;
66399;Laerm;54877;51.504;3.894;2023-05-02T08:26:43;38.51;34.06;57.02;;
66399;Laerm;54877;51.504;3.894;2023-05-02T08:29:08;45.15;34.26;77.61;;
66399;Laerm;54877;51.504;3.894;2023-05-02T08:31:36;41.41;34.33;57.07;;
66399;Laerm;54877;51.504;3.894;2023-05-02T08:34:01;45.04;34.31;56.26;;
66399;Laerm;54877;51.504;3.894;2023-05-02T08:36:26;46.90;34.59;65.24;;
66399;Laerm;54877;51.504;3.894;2023-05-02T08:38:53;39.41;34.22;52.52;;
66399;Laerm;54877;51.504;3.894;2023-05-02T08:41:18;44.64;34.01;63.01;;
66399;Laerm;54877;51.504;3.894;2023-05-02T08:43:45;43.20;34.63;51.64;;
66399;Laerm;54877;51.504;3.894;2023-05-02T08:46:12;48.51;34.51;64.70;;
66399;Laerm;54877;51.504;3.894;2023-05-02T08:48:40;44.44;34.78;62.71;;
66399;Laerm;54877;51.504;3.894;2023-05-02T08:51:11;47.45;34.29;68.06;;
66399;Laerm;54877;51.504;3.894;2023-05-02T08:53:38;37.56;34.28;55.86;;
66399;Laerm;54877;51.504;3.894;2023-05-02T08:56:05;38.54;34.42;57.66;;
66399;Laerm;54877;51.504;3.894;2023-05-02T08:58:31;45.63;34.39;65.18;;
66399;Laerm;54877;51.504;3.894;2023-05-02T09:00:59;38.33;34.46;57.89;;
66399;Laerm;54877;51.504;3.894;2023-05-02T09:03:33;41.21;34.45;59.01;;
66399;Laerm;54877;51.504;3.894;2023-05-02T09:08:32;42.90;34.14;59.45;;
66399;Laerm;54877;51.504;3.894;2023-05-02T09:10:58;45.61;34.43;65.15;;
66399;Laerm;54877;51.504;3.894;2023-05-02T09:13:37;44.35;34.40;60.47;;
66399;Laerm;54877;51.504;3.894;2023-05-02T09:18:31;36.31;34.32;51.64;;
66399;Laerm;54877;51.504;3.894;2023-05-02T09:20:57;35.92;34.20;45.04;;
66399;Laerm;54877;51.504;3.894;2023-05-02T09:25:59;43.43;34.30;60.84;;
66399;Laerm;54877;51.504;3.894;2023-05-02T09:28:45;37.84;33.99;47.05;;
66399;Laerm;54877;51.504;3.894;2023-05-02T09:31:14;40.65;34.20;59.06;;
66399;Laerm;54877;51.504;3.894;2023-05-02T09:33:40;44.56;34.03;60.49;;
66399;Laerm;54877;51.504;3.894;2023-05-02T09:36:07;35.78;33.79;49.60;;
66399;Laerm;54877;51.504;3.894;2023-05-02T09:38:33;35.86;34.06;48.43;;
66399;Laerm;54877;51.504;3.894;2023-05-02T09:40:59;42.95;34.17;59.72;;
66399;Laerm;54877;51.504;3.894;2023-05-02T09:43:28;44.75;34.08;62.75;;
66399;Laerm;54877;51.504;3.894;2023-05-02T09:46:05;43.14;34.04;61.54;;
66399;Laerm;54877;51.504;3.894;2023-05-02T09:48:32;38.45;34.05;69.48;;
66399;Laerm;54877;51.504;3.894;2023-05-02T09:50:58;37.14;34.04;50.56;;
66399;Laerm;54877;51.504;3.894;2023-05-02T09:53:25;39.61;34.31;64.71;;
66399;Laerm;54877;51.504;3.894;2023-05-02T09:56:03;37.28;33.88;53.97;;
66399;Laerm;54877;51.504;3.894;2023-05-02T09:58:29;36.19;33.76;50.42;;
66399;Laerm;54877;51.504;3.894;2023-05-02T10:00:56;36.74;34.44;52.85;;
66399;Laerm;54877;51.504;3.894;2023-05-02T10:03:22;59.43;34.50;92.71;;
66399;Laerm;54877;51.504;3.894;2023-05-02T10:05:49;42.51;34.39;59.88;;
66399;Laerm;54877;51.504;3.894;2023-05-02T10:08:15;44.62;34.09;60.21;;
66399;Laerm;54877;51.504;3.894;2023-05-02T10:10:46;43.30;33.91;61.46;;
66399;Laerm;54877;51.504;3.894;2023-05-02T10:13:12;47.77;34.37;66.98;;
66399;Laerm;54877;51.504;3.894;2023-05-02T10:15:42;39.08;34.19;59.37;;
66399;Laerm;54877;51.504;3.894;2023-05-02T10:18:13;40.94;34.13;57.31;;
66399;Laerm;54877;51.504;3.894;2023-05-02T10:20:46;37.29;34.23;55.79;;
66399;Laerm;54877;51.504;3.894;2023-05-02T10:23:15;37.04;34.37;53.07;;
66399;Laerm;54877;51.504;3.894;2023-05-02T10:25:41;36.36;34.08;57.37;;
66399;Laerm;54877;51.504;3.894;2023-05-02T10:28:07;43.54;34.58;60.83;;
66399;Laerm;54877;51.504;3.894;2023-05-02T10:30:34;36.57;34.52;58.18;;
66399;Laerm;54877;51.504;3.894;2023-05-02T10:33:00;39.47;34.53;57.04;;
66399;Laerm;54877;51.504;3.894;2023-05-02T10:35:27;36.68;34.27;54.81;;
66399;Laerm;54877;51.504;3.894;2023-05-02T10:37:52;43.95;34.54;62.95;;
66399;Laerm;54877;51.504;3.894;2023-05-02T10:40:18;47.26;34.39;63.22;;
66399;Laerm;54877;51.504;3.894;2023-05-02T10:42:46;38.95;34.32;59.25;;
66399;Laerm;54877;51.504;3.894;2023-05-02T10:45:29;41.96;34.37;59.54;;
66399;Laerm;54877;51.504;3.894;2023-05-02T10:48:14;35.73;34.28;47.63;;
66399;Laerm;54877;51.504;3.894;2023-05-02T10:50:56;36.01;34.05;48.50;;
66399;Laerm;54877;51.504;3.894;2023-05-02T10:53:26;41.72;34.39;69.81;;
66399;Laerm;54877;51.504;3.894;2023-05-02T10:56:19;38.47;34.28;61.13;;
66399;Laerm;54877;51.504;3.894;2023-05-02T10:58:47;46.88;34.60;64.85;;
66399;Laerm;54877;51.504;3.894;2023-05-02T11:03:59;36.68;34.57;49.47;;
66399;Laerm;54877;51.504;3.894;2023-05-02T11:06:25;45.35;34.89;64.57;;
66399;Laerm;54877;51.504;3.894;2023-05-02T11:08:51;36.60;34.50;48.09;;
66399;Laerm;54877;51.504;3.894;2023-05-02T11:14:12;39.21;34.45;58.08;;
66399;Laerm;54877;51.504;3.894;2023-05-02T11:19:22;37.04;34.63;53.40;;
66399;Laerm;54877;51.504;3.894;2023-05-02T11:21:47;42.71;34.43;61.24;;
66399;Laerm;54877;51.504;3.894;2023-05-02T11:24:39;38.30;34.35;56.35;;
66399;Laerm;54877;51.504;3.894;2023-05-02T11:30:07;38.32;34.72;60.05;;
66399;Laerm;54877;51.504;3.894;2023-05-02T11:35:16;41.82;35.12;57.01;;
66399;Laerm;54877;51.504;3.894;2023-05-02T11:37:42;41.52;35.14;63.74;;
66399;Laerm;54877;51.504;3.894;2023-05-02T11:40:11;41.30;34.92;65.26;;
66399;Laerm;54877;51.504;3.894;2023-05-02T11:42:37;37.27;34.53;52.91;;
66399;Laerm;54877;51.504;3.894;2023-05-02T11:45:02;46.05;35.25;66.63;;
66399;Laerm;54877;51.504;3.894;2023-05-02T11:47:31;38.67;34.78;58.93;;
66399;Laerm;54877;51.504;3.894;2023-05-02T11:49:57;46.71;34.78;68.40;;
66399;Laerm;54877;51.504;3.894;2023-05-02T11:52:24;41.18;34.59;68.33;;
66399;Laerm;54877;51.504;3.894;2023-05-02T11:54:53;40.46;34.56;47.10;;
66399;Laerm;54877;51.504;3.894;2023-05-02T11:57:20;38.79;34.43;61.65;;
66399;Laerm;54877;51.504;3.894;2023-05-02T12:02:15;62.58;35.12;84.09;;
66399;Laerm;54877;51.504;3.894;2023-05-02T12:04:44;39.58;34.63;54.76;;
66399;Laerm;54877;51.504;3.894;2023-05-02T12:07:09;46.12;34.99;64.02;;
66399;Laerm;54877;51.504;3.894;2023-05-02T12:09:35;40.25;34.80;55.15;;
66399;Laerm;54877;51.504;3.894;2023-05-02T12:12:00;45.46;34.77;65.29;;
66399;Laerm;54877;51.504;3.894;2023-05-02T12:14:28;40.39;34.96;64.87;;
66399;Laerm;54877;51.504;3.894;2023-05-02T12:16:56;43.10;34.96;58.61;;
66399;Laerm;54877;51.504;3.894;2023-05-02T12:19:22;39.20;34.58;66.61;;
66399;Laerm;54877;51.504;3.894;2023-05-02T12:21:48;42.69;34.78;65.28;;
66399;Laerm;54877;51.504;3.894;2023-05-02T12:24:14;41.32;34.84;61.40;;
66399;Laerm;54877;51.504;3.894;2023-05-02T12:26:39;49.24;34.92;80.16;;
66399;Laerm;54877;51.504;3.894;2023-05-02T12:29:05;38.85;34.45;63.72;;
66399;Laerm;54877;51.504;3.894;2023-05-02T12:31:33;43.30;34.69;76.61;;
66399;Laerm;54877;51.504;3.894;2023-05-02T12:33:59;47.20;34.59;68.52;;
66399;Laerm;54877;51.504;3.894;2023-05-02T12:36:26;49.50;34.33;64.21;;
66399;Laerm;54877;51.504;3.894;2023-05-02T12:38:56;50.51;34.48;59.89;;
66399;Laerm;54877;51.504;3.894;2023-05-02T12:41:37;40.70;34.69;66.97;;
66399;Laerm;54877;51.504;3.894;2023-05-02T12:44:04;38.03;34.47;61.47;;
66399;Laerm;54877;51.504;3.894;2023-05-02T12:46:31;40.87;34.75;64.27;;
66399;Laerm;54877;51.504;3.894;2023-05-02T12:49:06;48.53;34.65;79.69;;
66399;Laerm;54877;51.504;3.894;2023-05-02T12:51:37;44.99;34.60;65.17;;
66399;Laerm;54877;51.504;3.894;2023-05-02T12:54:03;40.44;34.43;54.77;;
66399;Laerm;54877;51.504;3.894;2023-05-02T12:56:29;46.93;34.14;64.23;;
66399;Laerm;54877;51.504;3.894;2023-05-02T12:58:56;35.93;34.17;45.68;;
66399;Laerm;54877;51.504;3.894;2023-05-02T13:01:28;36.93;34.38;53.13;;
66399;Laerm;54877;51.504;3.894;2023-05-02T13:03:53;45.96;34.81;62.48;;
66399;Laerm;54877;51.504;3.894;2023-05-02T13:06:18;42.39;34.27;58.54;;
66399;Laerm;54877;51.504;3.894;2023-05-02T13:08:44;43.82;34.09;61.76;;
66399;Laerm;54877;51.504;3.894;2023-05-02T13:11:09;40.02;34.18;57.44;;
66399;Laerm;54877;51.504;3.894;2023-05-02T13:13:34;35.85;34.15;45.86;;
66399;Laerm;54877;51.504;3.894;2023-05-02T13:16:00;36.32;34.18;50.49;;
66399;Laerm;54877;51.504;3.894;2023-05-02T13:18:25;42.57;34.34;62.81;;
66399;Laerm;54877;51.504;3.894;2023-05-02T13:20:52;43.05;34.17;59.11;;
66399;Laerm;54877;51.504;3.894;2023-05-02T13:23:17;45.27;34.62;54.55;;
66399;Laerm;54877;51.504;3.894;2023-05-02T13:25:43;47.73;39.17;56.98;;
66399;Laerm;54877;51.504;3.894;2023-05-02T13:28:08;50.59;38.54;68.84;;
66399;Laerm;54877;51.504;3.894;2023-05-02T13:30:33;48.60;40.19;65.69;;
66399;Laerm;54877;51.504;3.894;2023-05-02T13:32:59;49.14;41.25;58.86;;
66399;Laerm;54877;51.504;3.894;2023-05-02T13:35:24;48.08;34.60;61.10;;
66399;Laerm;54877;51.504;3.894;2023-05-02T13:37:50;49.55;35.40;65.27;;
66399;Laerm;54877;51.504;3.894;2023-05-02T13:40:15;51.26;42.20;62.24;;
66399;Laerm;54877;51.504;3.894;2023-05-02T13:42:41;50.48;42.24;64.60;;
66399;Laerm;54877;51.504;3.894;2023-05-02T13:45:07;49.90;40.89;59.49;;
66399;Laerm;54877;51.504;3.894;2023-05-02T13:47:32;50.56;41.94;62.10;;
66399;Laerm;54877;51.504;3.894;2023-05-02T13:49:58;48.66;38.90;61.00;;
66399;Laerm;54877;51.504;3.894;2023-05-02T13:52:23;46.92;34.60;63.69;;
66399;Laerm;54877;51.504;3.894;2023-05-02T13:54:49;37.34;34.35;54.16;;
66399;Laerm;54877;51.504;3.894;2023-05-02T13:57:14;38.85;34.51;51.23;;
66399;Laerm;54877;51.504;3.894;2023-05-02T13:59:39;45.76;34.56;65.88;;
66399;Laerm;54877;51.504;3.894;2023-05-02T14:02:06;48.12;34.46;65.53;;
66399;Laerm;54877;51.504;3.894;2023-05-02T14:04:31;40.37;34.34;55.46;;
66399;Laerm;54877;51.504;3.894;2023-05-02T14:06:56;35.96;34.13;49.52;;
66399;Laerm;54877;51.504;3.894;2023-05-02T14:09:22;45.05;34.05;64.97;;
66399;Laerm;54877;51.504;3.894;2023-05-02T14:11:47;46.20;34.27;64.64;;
66399;Laerm;54877;51.504;3.894;2023-05-02T14:14:13;46.91;34.36;64.07;;
66399;Laerm;54877;51.504;3.894;2023-05-02T14:16:38;36.02;34.11;49.88;;
66399;Laerm;54877;51.504;3.894;2023-05-02T14:19:04;40.65;34.24;58.96;;
66399;Laerm;54877;51.504;3.894;2023-05-02T14:21:29;38.93;34.43;63.47;;
66399;Laerm;54877;51.504;3.894;2023-05-02T14:23:56;38.01;34.50;59.50;;
66399;Laerm;54877;51.504;3.894;2023-05-02T14:26:21;37.14;34.34;57.97;;
66399;Laerm;54877;51.504;3.894;2023-05-02T14:28:47;37.27;34.20;53.77;;
66399;Laerm;54877;51.504;3.894;2023-05-02T14:31:12;43.69;34.41;59.93;;